createdAt,value
2023-04-12T00:01:50.393Z,2.20
2023-04-12T00:04:18.169Z,1.90
2023-04-12T00:06:45.787Z,1.97
2023-04-12T00:09:13.259Z,1.80
2023-04-12T00:11:40.810Z,1.83
2023-04-12T00:14:08.302Z,1.77
2023-04-12T00:16:35.854Z,1.97
2023-04-12T00:19:03.355Z,2.03
2023-04-12T00:21:30.944Z,1.83
2023-04-12T00:23:58.828Z,1.77
2023-04-12T00:26:26.704Z,1.70
2023-04-12T00:28:54.223Z,2.00
2023-04-12T00:31:21.788Z,1.87
2023-04-12T00:33:49.371Z,2.23
2023-04-12T00:36:17.055Z,2.20
2023-04-12T00:38:44.645Z,1.80
2023-04-12T00:41:12.685Z,1.70
2023-04-12T00:43:41.072Z,2.00
2023-04-12T00:46:08.682Z,2.50
2023-04-12T00:48:37.367Z,2.77
2023-04-12T00:51:06.633Z,2.27
2023-04-12T00:53:34.519Z,2.20
2023-04-12T00:56:02.097Z,2.40
2023-04-12T00:58:29.600Z,2.37
2023-04-12T01:00:57.300Z,1.97
2023-04-12T01:03:25.779Z,2.27
2023-04-12T01:06:12.426Z,2.40
2023-04-12T01:08:39.935Z,2.23
2023-04-12T01:11:15.611Z,2.50
2023-04-12T01:13:47.673Z,2.33
2023-04-12T01:16:19.712Z,4.07
2023-04-12T01:18:47.775Z,2.57
2023-04-12T01:21:16.879Z,2.27
2023-04-12T01:23:52.400Z,2.67
2023-04-12T01:26:35.299Z,2.70
2023-04-12T01:29:03.552Z,2.13
2023-04-12T01:31:31.850Z,2.40
2023-04-12T01:34:00.205Z,2.70
2023-04-12T01:36:28.646Z,2.13
2023-04-12T01:38:56.806Z,2.27
2023-04-12T01:41:24.348Z,2.00
2023-04-12T01:43:51.914Z,2.00
2023-04-12T01:46:22.827Z,2.07
2023-04-12T01:48:51.608Z,2.37
2023-04-12T01:51:37.884Z,1.83
2023-04-12T01:54:09.544Z,1.97
2023-04-12T01:56:38.996Z,2.40
2023-04-12T01:59:08.424Z,1.90
2023-04-12T02:01:36.254Z,2.07
2023-04-12T02:04:05.065Z,2.00
2023-04-12T02:06:34.070Z,1.60
2023-04-12T02:09:05.320Z,2.17
2023-04-12T02:11:32.969Z,2.77
2023-04-12T02:14:00.464Z,1.97
2023-04-12T02:16:28.199Z,2.53
2023-04-12T02:18:55.855Z,2.30
2023-04-12T02:21:23.555Z,2.03
2023-04-12T02:23:51.140Z,2.13
2023-04-12T02:26:18.658Z,1.70
2023-04-12T02:28:46.234Z,1.77
2023-04-12T02:31:13.884Z,1.70
2023-04-12T02:33:41.473Z,1.53
2023-04-12T02:36:10.239Z,1.93
2023-04-12T02:38:37.805Z,1.80
2023-04-12T02:41:05.525Z,1.80
2023-04-12T02:43:33.663Z,1.87
2023-04-12T02:46:01.286Z,1.87
2023-04-12T02:48:28.962Z,1.60
2023-04-12T02:50:56.574Z,2.13
2023-04-12T02:53:24.091Z,1.50
2023-04-12T02:55:51.683Z,1.60
2023-04-12T02:58:19.194Z,1.40
2023-04-12T03:00:46.763Z,1.73
2023-04-12T03:03:14.533Z,1.60
2023-04-12T03:05:42.239Z,2.10
2023-04-12T03:08:09.736Z,1.67
2023-04-12T03:10:37.275Z,1.33
2023-04-12T03:13:04.968Z,1.60
2023-04-12T03:15:32.598Z,1.60
2023-04-12T03:18:00.164Z,1.60
2023-04-12T03:20:27.806Z,1.50
2023-04-12T03:22:55.333Z,1.53
2023-04-12T03:25:22.879Z,1.60
2023-04-12T03:27:50.401Z,1.43
2023-04-12T03:30:17.976Z,1.60
2023-04-12T03:32:45.660Z,1.90
2023-04-12T03:35:13.236Z,1.73
2023-04-12T03:37:43.988Z,1.53
2023-04-12T03:40:11.684Z,1.60
2023-04-12T03:42:39.224Z,1.77
2023-04-12T03:45:07.162Z,1.50
2023-04-12T03:47:34.706Z,1.37
2023-04-12T03:50:11.389Z,1.20
2023-04-12T03:52:39.528Z,1.20
2023-04-12T03:55:07.612Z,1.30
2023-04-12T03:57:35.692Z,1.77
2023-04-12T04:00:03.188Z,1.20
2023-04-12T04:02:31.104Z,1.50
2023-04-12T04:04:58.846Z,1.07
2023-04-12T04:07:26.546Z,1.87
2023-04-12T04:09:55.051Z,2.00
2023-04-12T04:12:22.588Z,1.50
2023-04-12T04:14:50.070Z,1.60
2023-04-12T04:17:17.623Z,1.60
2023-04-12T04:19:45.163Z,1.63
2023-04-12T04:22:12.768Z,2.03
2023-04-12T04:24:40.295Z,1.53
2023-04-12T04:27:07.847Z,1.70
2023-04-12T04:29:35.329Z,1.90
2023-04-12T04:32:02.930Z,1.80
2023-04-12T04:34:30.540Z,1.57
2023-04-12T04:36:59.529Z,1.73
2023-04-12T04:39:27.105Z,1.53
2023-04-12T04:41:55.190Z,1.87
2023-04-12T04:44:22.774Z,2.40
2023-04-12T04:46:50.280Z,1.90
2023-04-12T04:49:17.868Z,2.33
2023-04-12T04:51:45.453Z,1.70
2023-04-12T04:54:12.959Z,1.80
2023-04-12T04:56:40.511Z,1.97
2023-04-12T04:59:08.014Z,1.77
2023-04-12T05:01:35.667Z,2.10
2023-04-12T05:04:03.875Z,2.30
2023-04-12T05:06:33.874Z,1.93
2023-04-12T05:09:01.357Z,2.17
2023-04-12T05:11:28.922Z,2.30
2023-04-12T05:13:56.442Z,2.20
2023-04-12T05:16:24.129Z,2.40
2023-04-12T05:18:51.616Z,2.00
2023-04-12T05:21:19.224Z,2.47
2023-04-12T05:23:47.176Z,2.40
2023-04-12T05:26:14.739Z,2.37
2023-04-12T05:28:42.210Z,1.93
2023-04-12T05:31:09.826Z,2.30
2023-04-12T05:33:37.356Z,2.00
2023-04-12T05:36:05.468Z,1.97
2023-04-12T05:38:33.010Z,2.30
2023-04-12T05:41:01.711Z,2.60
2023-04-12T05:43:29.252Z,2.43
2023-04-12T05:45:56.868Z,2.20
2023-04-12T05:48:24.400Z,2.73
2023-04-12T05:50:52.295Z,2.63
2023-04-12T05:53:19.823Z,2.10
2023-04-12T05:55:47.431Z,2.67
2023-04-12T05:58:14.992Z,2.70
2023-04-12T06:00:42.685Z,2.30
2023-04-12T06:03:10.470Z,2.60
2023-04-12T06:05:38.340Z,2.60
2023-04-12T06:08:05.897Z,2.63
2023-04-12T06:10:33.473Z,2.73
2023-04-12T06:13:01.039Z,2.97
2023-04-12T06:15:28.576Z,2.80
2023-04-12T06:17:56.108Z,2.40
2023-04-12T06:20:23.667Z,2.70
2023-04-12T06:22:51.129Z,2.20
2023-04-12T06:25:18.671Z,2.67
2023-04-12T06:27:46.192Z,2.43
2023-04-12T06:30:13.880Z,2.13
2023-04-12T06:32:41.381Z,3.27
2023-04-12T06:35:09.134Z,2.57
2023-04-12T06:37:39.729Z,2.47
2023-04-12T06:40:07.639Z,2.60
2023-04-12T06:42:35.154Z,2.57
2023-04-12T06:45:02.725Z,3.10
2023-04-12T06:47:30.498Z,2.50
2023-04-12T06:49:58.109Z,2.80
2023-04-12T06:52:25.604Z,3.23
2023-04-12T06:54:53.463Z,3.07
2023-04-12T06:57:21.013Z,2.87
2023-04-12T06:59:48.540Z,2.63
2023-04-12T07:02:16.197Z,3.20
2023-04-12T07:04:43.841Z,2.80
2023-04-12T07:07:11.381Z,2.87
2023-04-12T07:09:38.929Z,2.33
2023-04-12T07:12:06.522Z,3.00
2023-04-12T07:14:34.056Z,2.83
2023-04-12T07:17:04.919Z,2.73
2023-04-12T07:19:33.687Z,2.70
2023-04-12T07:22:01.207Z,2.60
2023-04-12T07:24:28.821Z,3.00
2023-04-12T07:26:56.332Z,2.57
2023-04-12T07:29:24.012Z,2.60
2023-04-12T07:31:51.665Z,2.43
2023-04-12T07:34:19.391Z,2.40
2023-04-12T07:36:48.223Z,2.70
2023-04-12T07:39:15.980Z,2.57
2023-04-12T07:41:43.729Z,2.90
2023-04-12T07:44:11.269Z,2.33
2023-04-12T07:46:39.468Z,2.40
2023-04-12T07:49:07.040Z,2.53
2023-04-12T07:51:34.686Z,3.03
2023-04-12T07:54:02.212Z,2.77
2023-04-12T07:56:29.774Z,3.17
2023-04-12T07:58:57.590Z,2.63
2023-04-12T08:01:25.439Z,2.70
2023-04-12T08:03:53.301Z,2.80
2023-04-12T08:06:20.942Z,2.80
2023-04-12T08:08:48.587Z,3.00
2023-04-12T08:11:16.133Z,2.70
2023-04-12T08:13:43.673Z,2.90
2023-04-12T08:16:11.187Z,3.20
2023-04-12T08:18:38.807Z,2.67
2023-04-12T08:21:06.497Z,2.93
2023-04-12T08:23:34.039Z,2.93
2023-04-12T08:26:01.545Z,2.73
2023-04-12T08:28:29.092Z,2.70
2023-04-12T08:30:56.640Z,3.00
2023-04-12T08:33:24.292Z,2.80
2023-04-12T08:35:51.904Z,2.73
2023-04-12T08:38:23.611Z,3.40
2023-04-12T08:40:58.551Z,2.87
2023-04-12T08:43:29.177Z,2.70
2023-04-12T08:45:57.081Z,2.50
2023-04-12T08:48:25.081Z,2.87
2023-04-12T08:50:52.887Z,2.97
2023-04-12T08:53:20.514Z,2.97
2023-04-12T08:55:48.076Z,2.60
2023-04-12T08:58:15.902Z,3.17
2023-04-12T09:00:45.047Z,3.00
2023-04-12T09:03:12.926Z,3.87
2023-04-12T09:05:40.588Z,3.53
2023-04-12T09:08:08.123Z,2.93
2023-04-12T09:10:36.888Z,3.13
2023-04-12T09:13:07.733Z,3.53
2023-04-12T09:15:35.620Z,2.83
2023-04-12T09:18:13.430Z,3.53
2023-04-12T09:20:42.069Z,3.00
2023-04-12T09:23:19.969Z,2.90
2023-04-12T09:25:47.827Z,2.73
2023-04-12T09:28:19.542Z,3.00
2023-04-12T09:30:47.403Z,2.53
2023-04-12T09:33:14.874Z,2.63
2023-04-12T09:35:42.568Z,2.50
2023-04-12T09:38:12.402Z,2.70
2023-04-12T09:40:39.984Z,2.57
2023-04-12T09:43:07.776Z,2.50
2023-04-12T09:45:36.486Z,1.83
2023-04-12T09:48:04.670Z,1.57
2023-04-12T09:50:32.297Z,1.70
2023-04-12T09:53:00.668Z,1.00
2023-04-12T09:55:29.127Z,1.47
2023-04-12T09:57:57.097Z,1.03
2023-04-12T10:00:25.439Z,1.20
2023-04-12T10:02:54.230Z,0.90
2023-04-12T10:05:23.128Z,1.10
2023-04-12T10:07:51.131Z,1.23
2023-04-12T10:10:19.898Z,1.00
2023-04-12T10:12:48.119Z,0.90
2023-04-12T10:15:16.460Z,1.20
2023-04-12T10:17:45.730Z,1.10
2023-04-12T10:20:14.084Z,1.10
2023-04-12T10:22:51.601Z,1.30
2023-04-12T10:25:23.090Z,1.20
2023-04-12T10:27:50.731Z,1.30
2023-04-12T10:30:21.115Z,1.80
2023-04-12T10:32:49.751Z,2.20
2023-04-12T10:35:17.361Z,2.07
2023-04-12T10:38:00.184Z,2.03
2023-04-12T10:40:28.359Z,1.63
2023-04-12T10:43:14.870Z,2.37
2023-04-12T10:45:42.541Z,1.63
2023-04-12T10:48:29.443Z,1.80
2023-04-12T10:51:16.127Z,1.80
2023-04-12T10:53:44.188Z,2.10
2023-04-12T10:56:32.122Z,1.70
2023-04-12T10:59:04.128Z,1.83
2023-04-12T11:01:32.404Z,2.20
2023-04-12T11:04:19.629Z,1.67
2023-04-12T11:06:54.807Z,4.30
2023-04-12T11:09:47.148Z,1.83
2023-04-12T11:12:15.556Z,2.60
2023-04-12T11:14:47.510Z,2.60
2023-04-12T11:17:15.150Z,1.37
2023-04-12T11:19:46.402Z,2.13
2023-04-12T11:22:15.071Z,2.10
2023-04-12T11:24:46.765Z,1.87
2023-04-12T11:27:14.763Z,1.50
2023-04-12T11:29:42.437Z,1.53
2023-04-12T11:32:13.716Z,1.77
2023-04-12T11:34:42.190Z,1.93
2023-04-12T11:37:10.140Z,2.07
2023-04-12T11:39:39.907Z,2.20
2023-04-12T11:42:07.683Z,1.63
2023-04-12T11:44:48.221Z,1.63
2023-04-12T11:47:21.908Z,1.80
2023-04-12T11:49:52.964Z,2.10
2023-04-12T11:52:21.706Z,2.03
2023-04-12T11:54:50.606Z,1.90
2023-04-12T11:57:19.209Z,2.13
2023-04-12T11:59:47.781Z,2.00
2023-04-12T12:02:23.311Z,2.47
2023-04-12T12:04:52.541Z,2.00
2023-04-12T12:07:21.967Z,2.07
2023-04-12T12:09:50.695Z,2.57
2023-04-12T12:12:20.883Z,2.50
2023-04-12T12:14:48.508Z,2.13
2023-04-12T12:17:16.846Z,1.83
2023-04-12T12:19:45.300Z,2.27
2023-04-12T12:22:22.390Z,2.60
2023-04-12T12:24:57.128Z,2.30
2023-04-12T12:27:45.030Z,2.20
2023-04-12T12:30:12.883Z,2.53
2023-04-12T12:32:40.446Z,2.60
2023-04-12T12:35:11.801Z,2.33
2023-04-12T12:37:48.643Z,2.53
2023-04-12T12:40:16.296Z,2.63
2023-04-12T12:42:59.738Z,2.97
2023-04-12T12:45:47.714Z,2.80
2023-04-12T12:48:15.477Z,2.90
2023-04-12T12:50:43.037Z,3.57
2023-04-12T12:53:10.632Z,3.37
2023-04-12T12:55:38.142Z,3.17
2023-04-12T12:58:07.607Z,3.43
2023-04-12T13:00:36.466Z,2.80
2023-04-12T13:03:04.502Z,2.90
2023-04-12T13:05:32.357Z,2.80
2023-04-12T13:07:59.838Z,2.90
2023-04-12T13:10:27.353Z,2.30
2023-04-12T13:12:54.958Z,2.43
2023-04-12T13:15:24.379Z,2.37
2023-04-12T13:17:53.082Z,2.33
2023-04-12T13:20:20.882Z,2.77
2023-04-12T13:22:48.491Z,2.10
2023-04-12T13:25:16.020Z,1.90
2023-04-12T13:27:43.662Z,1.50
2023-04-12T13:30:11.727Z,1.77
2023-04-12T13:32:39.317Z,1.60
2023-04-12T13:35:07.169Z,1.73
2023-04-12T13:37:35.031Z,1.43
2023-04-12T13:40:02.595Z,1.60
2023-04-12T13:42:30.332Z,1.50
2023-04-12T13:44:57.879Z,1.40
2023-04-12T13:47:25.457Z,1.80
2023-04-12T13:49:52.975Z,1.97
2023-04-12T13:52:20.944Z,2.50
2023-04-12T13:54:48.461Z,1.07
2023-04-12T13:57:16.052Z,1.60
2023-04-12T13:59:43.577Z,2.37
2023-04-12T14:21:21.760Z,1.83
2023-04-12T14:23:49.319Z,1.60
2023-04-12T14:26:19.663Z,1.60
2023-04-12T14:28:47.372Z,1.83
2023-04-12T14:31:15.046Z,2.60
2023-04-12T14:33:42.778Z,2.23
2023-04-12T14:36:10.463Z,3.03
2023-04-12T14:38:37.950Z,3.10
2023-04-12T14:41:08.867Z,2.23
2023-04-12T14:43:36.428Z,2.57
2023-04-12T14:46:04.037Z,2.53
2023-04-12T14:48:31.640Z,2.70
2023-04-12T14:50:59.172Z,2.03
2023-04-12T14:53:26.718Z,1.53
2023-04-12T14:55:54.248Z,1.23
2023-04-12T14:58:21.805Z,1.17
2023-04-12T15:00:49.901Z,0.80
2023-04-12T15:03:17.705Z,0.80
2023-04-12T15:05:45.680Z,1.00
2023-04-12T15:08:13.720Z,0.70
2023-04-12T15:10:41.240Z,1.17
2023-04-12T15:13:08.778Z,1.03
2023-04-12T15:15:36.310Z,1.00
2023-04-12T15:18:03.885Z,0.70
2023-04-12T15:20:31.483Z,1.10
2023-04-12T15:22:59.155Z,1.00
2023-04-12T15:25:26.821Z,1.00
2023-04-12T15:27:54.381Z,1.03
2023-04-12T15:30:21.915Z,1.00
2023-04-12T15:32:49.534Z,1.17
2023-04-12T15:35:26.040Z,1.40
2023-04-12T15:37:54.733Z,1.10
2023-04-12T15:40:22.309Z,1.37
2023-04-12T15:42:51.144Z,1.20
2023-04-12T15:45:18.662Z,1.20
2023-04-12T15:47:46.315Z,1.23
2023-04-12T15:50:13.913Z,1.00
2023-04-12T15:52:41.495Z,1.13
2023-04-12T15:55:09.334Z,1.10
2023-04-12T15:57:36.874Z,1.27
2023-04-12T16:00:04.797Z,1.27
2023-04-12T16:02:32.562Z,1.20
2023-04-12T16:05:00.376Z,1.17
2023-04-12T16:07:28.156Z,1.30
2023-04-12T16:09:55.656Z,1.50
2023-04-12T16:12:23.336Z,1.00
2023-04-12T16:14:51.911Z,0.97
2023-04-12T16:17:19.515Z,1.20
2023-04-12T16:19:47.036Z,1.10
2023-04-12T16:22:14.687Z,1.30
2023-04-12T16:24:42.254Z,1.73
2023-04-12T16:27:09.869Z,2.00
2023-04-12T16:29:37.436Z,1.37
2023-04-12T16:32:05.157Z,1.00
2023-04-12T16:34:32.759Z,1.00
2023-04-12T16:37:00.313Z,0.93
2023-04-12T16:39:27.793Z,1.03
2023-04-12T16:41:55.361Z,1.10
2023-04-12T16:44:22.898Z,0.90
2023-04-12T16:46:50.505Z,1.00
2023-04-12T16:49:19.815Z,1.20
2023-04-12T16:51:47.555Z,0.90
2023-04-12T16:54:15.039Z,0.90
2023-04-12T16:56:42.565Z,1.20
2023-04-12T16:59:10.105Z,0.80
2023-04-12T17:01:37.629Z,0.83
2023-04-12T17:04:05.282Z,1.00
2023-04-12T17:06:33.032Z,0.90
2023-04-12T17:09:00.750Z,1.20
2023-04-12T17:11:28.336Z,1.00
2023-04-12T17:13:56.320Z,1.00
2023-04-12T17:16:24.079Z,1.27
2023-04-12T17:18:51.626Z,1.20
2023-04-12T17:21:19.355Z,1.10
2023-04-12T17:23:50.072Z,1.20
2023-04-12T17:26:18.193Z,1.20
2023-04-12T17:28:45.670Z,1.20
2023-04-12T17:31:13.254Z,1.30
2023-04-12T17:33:40.862Z,1.87
2023-04-12T17:36:11.432Z,2.00
2023-04-12T17:38:39.248Z,2.00
2023-04-12T17:41:07.854Z,1.97
2023-04-12T17:43:35.520Z,2.10
2023-04-12T17:46:03.049Z,1.40
2023-04-12T17:48:30.852Z,1.40
2023-04-12T17:50:58.365Z,1.43
2023-04-12T17:53:25.934Z,3.50
2023-04-12T17:55:53.458Z,2.60
2023-04-12T17:58:21.040Z,1.70
2023-04-12T18:00:48.617Z,1.87
2023-04-12T18:03:16.382Z,2.60
2023-04-12T18:05:43.986Z,2.90
2023-04-12T18:08:11.558Z,1.20
2023-04-12T18:10:39.034Z,1.43
2023-04-12T18:13:06.588Z,1.70
2023-04-12T18:15:34.172Z,1.70
2023-04-12T18:18:01.820Z,1.80
2023-04-12T18:20:29.439Z,1.57
2023-04-12T18:22:57.008Z,2.03
2023-04-12T18:25:24.564Z,1.90
2023-04-12T18:27:52.091Z,1.90
2023-04-12T18:30:19.699Z,1.80
2023-04-12T18:32:47.334Z,2.00
2023-04-12T18:35:14.924Z,1.60
2023-04-12T18:37:42.541Z,2.10
2023-04-12T18:40:10.421Z,1.60
2023-04-12T18:42:38.013Z,2.00
2023-04-12T18:45:05.765Z,2.20
2023-04-12T18:47:33.414Z,2.60
2023-04-12T18:50:01.005Z,2.30
2023-04-12T18:52:28.590Z,1.80
2023-04-12T18:54:56.101Z,2.00
2023-04-12T18:57:23.769Z,1.77
2023-04-12T18:59:51.434Z,1.77
2023-04-12T19:02:19.186Z,2.03
2023-04-12T19:04:46.732Z,2.37
2023-04-12T19:07:14.412Z,2.70
2023-04-12T19:09:41.973Z,1.97
2023-04-12T19:12:09.672Z,2.47
2023-04-12T19:14:37.251Z,2.20
2023-04-12T19:17:04.853Z,2.20
2023-04-12T19:19:32.354Z,2.30
2023-04-12T19:21:59.933Z,2.50
2023-04-12T19:24:27.409Z,2.33
2023-04-12T19:26:55.096Z,2.13
2023-04-12T19:29:22.589Z,1.47
2023-04-12T19:31:50.340Z,1.40
2023-04-12T19:34:18.264Z,1.23
2023-04-12T19:36:46.019Z,1.10
2023-04-12T19:39:13.665Z,1.13
2023-04-12T19:41:41.240Z,1.00
2023-04-12T19:44:08.796Z,1.20
2023-04-12T19:46:36.383Z,0.90
2023-04-12T19:49:03.970Z,0.80
2023-04-12T19:51:31.578Z,0.90
2023-04-12T19:53:59.528Z,0.97
2023-04-12T19:56:27.346Z,0.80
2023-04-12T19:58:54.867Z,1.00
2023-04-12T20:01:22.450Z,1.40
2023-04-12T20:03:50.079Z,0.90
2023-04-12T20:06:17.872Z,1.00
2023-04-12T20:08:45.443Z,1.13
2023-04-12T20:11:14.228Z,0.90
2023-04-12T20:13:41.732Z,1.10
2023-04-12T20:16:09.295Z,1.10
2023-04-12T20:18:36.885Z,1.10
2023-04-12T20:21:04.697Z,0.93
2023-04-12T20:23:32.433Z,0.83
2023-04-12T20:26:00.094Z,1.00
2023-04-12T20:28:27.734Z,1.20
2023-04-12T20:30:55.403Z,1.10
2023-04-12T20:33:22.962Z,0.77
2023-04-12T20:35:50.611Z,1.00
2023-04-12T20:38:18.154Z,0.90
2023-04-12T20:40:45.661Z,1.10
2023-04-12T20:43:13.220Z,2.13
2023-04-12T20:45:40.748Z,1.60
2023-04-12T20:48:08.420Z,1.57
2023-04-12T20:50:36.019Z,1.27
2023-04-12T20:53:03.618Z,1.77
2023-04-12T20:55:31.363Z,1.87
2023-04-12T20:57:59.404Z,1.47
2023-04-12T21:00:27.783Z,1.60
2023-04-12T21:02:55.608Z,1.30
2023-04-12T21:05:23.640Z,1.60
2023-04-12T21:07:51.200Z,1.60
2023-04-12T21:10:18.758Z,1.43
2023-04-12T21:12:46.380Z,1.40
2023-04-12T21:15:14.109Z,1.60
2023-04-12T21:17:41.769Z,1.60
2023-04-12T21:20:09.476Z,2.00
2023-04-12T21:22:37.132Z,1.80
2023-04-12T21:25:04.792Z,1.97
2023-04-12T21:27:32.394Z,1.33
2023-04-12T21:29:59.911Z,1.70
2023-04-12T21:32:27.490Z,2.00
2023-04-12T21:34:55.223Z,1.70
2023-04-12T21:37:22.995Z,1.73
2023-04-12T21:39:50.543Z,1.87
2023-04-12T21:42:18.229Z,2.00
2023-04-12T21:44:45.752Z,2.10
2023-04-12T21:47:13.422Z,1.83
2023-04-12T21:49:40.926Z,1.80
2023-04-12T21:52:08.469Z,1.50
2023-04-12T21:54:36.012Z,1.40
2023-04-12T21:57:03.586Z,1.80
2023-04-12T21:59:31.149Z,1.80
2023-04-12T22:01:58.845Z,1.27
2023-04-12T22:04:26.470Z,1.60
2023-04-12T22:06:54.051Z,1.57
2023-04-12T22:09:21.636Z,1.30
2023-04-12T22:11:49.222Z,1.30
2023-04-12T22:14:16.705Z,1.40
2023-04-12T22:16:44.294Z,1.83
2023-04-12T22:19:11.941Z,1.60
2023-04-12T22:21:39.509Z,1.70
2023-04-12T22:24:07.092Z,1.97
2023-04-12T22:26:35.003Z,1.60
2023-04-12T22:29:02.531Z,1.60
2023-04-12T22:31:30.156Z,1.50
2023-04-12T22:33:57.832Z,1.40
2023-04-12T22:36:28.525Z,1.50
2023-04-12T22:38:57.005Z,1.10
2023-04-12T22:41:24.524Z,1.30
2023-04-12T22:43:52.065Z,0.90
2023-04-12T22:46:19.563Z,0.90
2023-04-12T22:48:47.401Z,1.10
2023-04-12T22:51:15.248Z,1.10
2023-04-12T22:53:42.970Z,1.17
2023-04-12T22:56:10.613Z,1.20
2023-04-12T22:58:38.155Z,1.00
2023-04-12T23:01:05.836Z,1.30
2023-04-12T23:03:33.410Z,1.00
2023-04-12T23:06:00.982Z,1.20
2023-04-12T23:08:28.543Z,1.10
2023-04-12T23:10:56.041Z,0.80
2023-04-12T23:13:23.609Z,1.20
2023-04-12T23:15:51.182Z,1.30
2023-04-12T23:18:18.744Z,0.77
2023-04-12T23:20:46.226Z,1.20
2023-04-12T23:23:13.791Z,1.13
2023-04-12T23:25:41.361Z,0.90
2023-04-12T23:28:10.619Z,0.90
2023-04-12T23:30:38.205Z,1.10
2023-04-12T23:33:06.355Z,1.20
2023-04-12T23:35:35.427Z,0.90
2023-04-12T23:38:03.082Z,1.20
2023-04-12T23:40:30.580Z,0.80
2023-04-12T23:42:58.185Z,1.07
2023-04-12T23:45:25.735Z,1.00
2023-04-12T23:47:53.834Z,0.90
2023-04-12T23:50:21.425Z,1.27
2023-04-12T23:52:48.928Z,1.10
2023-04-12T23:55:16.438Z,1.10
2023-04-12T23:57:43.967Z,1.20
